Gettysburg, SD

23:41 CST le 26 janvier 2015 (GMT -0600)
Mobridge Municipal | Change Station
CLOSE
Current Station
Aéroport
Location: Mobridge,
Altitude: 1716 ft
Stations météo à proximité

Alt. 1716 ft 45.55 °N, 100.41 °W | Updated 49 minutes ago

Ciel dégagé
Ciel dégagé
33 ° F
Paraît 29 ° F
N
5
Vent Variable Vent de SE

Aujourd'hui
Haut(e) -- | Bas -- ° F
--% Risque de précip.
Hier
Haut(e) -- | Bas -- ° F
Precip. -- pouce
8:06 AM 5:39 PM
Lune montante, 50% visible
Pression 30.00 pouce
Visibilité 10.0 Miles terrestres
Nuages Ciel dégagé
Refroidissement éolien 29 ° F
Point de rosée 29 ° F
Humidité 85%
Précipitations 0.00 pouce
Profondeur de la couche neigeuse Non disponible.
UV 0 sur 12
Pollen 1.90 sur 12
Qualité de l'air Non disponible.
Flu Activity Non disponible.
METAR KMBG 270452Z AUTO 13004KT 10SM CLR 01/M02 A2996 RMK AO2 SLP159 T00061017

More Conditions Fewer Conditions

Pression 30.00 pouce
Visibilité 10.0 Miles terrestres
Nuages Ciel dégagé
Refroidissement éolien 29 ° F
Point de rosée 29 ° F
Humidité 85%
Précipitations 0.00 pouce
Profondeur de la couche neigeuse Non disponible.
UV 0 sur 12
Pollen 1.90 sur 12
Qualité de l'air Non disponible.
Flu Activity Non disponible.
METAR KMBG 270452Z AUTO 13004KT 10SM CLR 01/M02 A2996 RMK AO2 SLP159 T00061017

More Conditions Fewer Conditions

10-Day Weather Forecast

Almanac

Astronomie

Jan. 26, 2015 Lever Coucher
Temps réel
Crépuscule civil
Crépuscule nautique
Crépuscule astronomique
Lune
Durée de lumière visible
Longueur du jour
Tomorrow will be .
, % of the Moon is Illuminated

Extrêmes aujourd'hui

State Highs State Lows

Community

WunderPhotos

Upload Photos

1,790,536 Photos téléchargées !

WunderBlogs® & News

Nearby

Qualité de l'air

  Qualité de l'air Indice de la qualité de l'air Polluant
Not available.

Épaisseur de neige

Station Depth Altitude

Activité sismique

Ville Distance Mag. Time & Date
Minimum magnitude displayed is 2.5.

Températures des eaux côtières

Lieu Température

Stations météo à proximité